Search for airport 
image banner adimage banner adimage banner ad
image banner ad

6PA6 - Air Haven

Located in Moscow, United States

ICAO - 6PA6, IATA -

Data provided by Airmate  

General information

Coordinates: N41°21'0" W75°28'59"
Elevation is 1550 feet MSL.
Magnetic variation is -12° East
View others Airports in Pennsylvania

Operational data

Special qualification required
Current time UTC:
Current local time:
Weather at : KAVP - Wilkes-Barre/Scranton Intl ( 20 km )
METAR: KAVP 150532Z 23005KT 8SM OVC003 17/16 A2980 RMK AO2 T01720161
TAF: KAVP 150253Z 1503/1524 00000KT P6SM OVC009 TEMPO 1508/1512 1 1/2SM BR FM151200 VRB03KT 5SM BR BKN020 FM151500 32006KT P6SM BKN035 FM151800 31009G17KT P6SM -SHRA BKN050
View NOTAMs / SUP AIP / TFR affecting this airport [VIEW]
Communications frequencies: [VIEW]

Runways:

RWY identifierQFULength (ft)Width (ft)SurfaceLDA (ft)
N1600100GRASS
S1600100GRASS

Airport contact information

Address: Moscow United States

Satellite view of 6PA6